createdAt,value
2024-03-16T00:00:52.953Z,45.30
2024-03-16T00:03:20.848Z,43.90
2024-03-16T00:05:48.446Z,45.20
2024-03-16T00:08:15.967Z,42.90
2024-03-16T00:10:44.635Z,44.50
2024-03-16T00:13:12.192Z,42.70
2024-03-16T00:15:39.922Z,46.40
2024-03-16T00:18:07.662Z,45.60
2024-03-16T00:20:36.548Z,46.20
2024-03-16T00:23:04.350Z,46.80
2024-03-16T00:25:32.708Z,46.00
2024-03-16T00:28:01.329Z,43.90
2024-03-16T00:30:29.194Z,41.20
2024-03-16T00:32:57.248Z,42.30
2024-03-16T00:35:25.961Z,41.50
2024-03-16T00:45:30.119Z,44.20
2024-03-16T00:47:58.153Z,43.90
2024-03-16T00:50:25.733Z,45.90
2024-03-16T00:52:53.348Z,44.00
2024-03-16T00:55:20.971Z,44.40
2024-03-16T01:05:33.710Z,44.20
2024-03-16T01:08:01.306Z,43.50
2024-03-16T01:10:28.965Z,43.90
2024-03-16T01:12:56.454Z,44.80
2024-03-16T01:15:24.216Z,43.10
2024-03-16T01:17:52.102Z,41.00
2024-03-16T01:20:19.786Z,42.00
2024-03-16T01:22:47.466Z,43.40
2024-03-16T01:25:15.208Z,42.10
2024-03-16T01:27:42.843Z,42.10
2024-03-16T01:30:10.890Z,41.00
2024-03-16T01:32:38.426Z,41.80
2024-03-16T01:35:07.843Z,39.30
2024-03-16T01:37:35.481Z,39.70
2024-03-16T01:40:03.633Z,39.30
2024-03-16T01:42:31.458Z,38.30
2024-03-16T01:45:12.209Z,39.40
2024-03-16T01:47:39.783Z,38.20
2024-03-16T01:50:09.408Z,41.60
2024-03-16T01:52:37.106Z,39.30
2024-03-16T01:55:05.532Z,40.30
2024-03-16T01:57:33.190Z,38.60
2024-03-16T02:00:02.673Z,37.00
2024-03-16T02:02:38.528Z,37.00
2024-03-16T02:05:06.806Z,37.10
2024-03-16T02:07:34.497Z,38.20
2024-03-16T02:10:04.513Z,36.40
2024-03-16T02:12:35.272Z,36.60
2024-03-16T02:15:03.549Z,35.90
2024-03-16T02:17:31.072Z,35.50
2024-03-16T02:19:58.612Z,37.50
2024-03-16T02:22:26.045Z,35.10
2024-03-16T02:24:53.869Z,35.80
2024-03-16T02:27:21.771Z,39.70
2024-03-16T02:29:49.611Z,39.70
2024-03-16T02:32:17.063Z,40.10
2024-03-16T02:34:45.243Z,39.10
2024-03-16T02:37:12.843Z,40.20
2024-03-16T02:39:40.564Z,39.40
2024-03-16T02:42:08.111Z,40.20
2024-03-16T02:44:35.633Z,39.90
2024-03-16T02:47:03.131Z,41.10
2024-03-16T02:49:31.323Z,41.00
2024-03-16T02:51:58.854Z,40.50
2024-03-16T02:54:26.423Z,40.90
2024-03-16T02:56:54.070Z,38.60
2024-03-16T02:59:21.692Z,40.50
2024-03-16T03:01:49.589Z,40.90
2024-03-16T03:04:17.114Z,39.00
2024-03-16T03:06:44.693Z,39.30
2024-03-16T03:09:12.221Z,41.20
2024-03-16T03:11:39.878Z,42.40
2024-03-16T03:14:07.876Z,41.30
2024-03-16T03:16:35.484Z,42.20
2024-03-16T03:19:03.064Z,41.10
2024-03-16T03:21:30.874Z,40.80
2024-03-16T03:24:00.679Z,41.00
2024-03-16T03:26:30.448Z,40.50
2024-03-16T03:28:58.497Z,39.60
2024-03-16T03:31:26.194Z,39.20
2024-03-16T03:33:53.797Z,40.00
2024-03-16T03:36:21.370Z,41.30
2024-03-16T03:38:49.158Z,40.60
2024-03-16T03:41:16.711Z,38.70
2024-03-16T03:43:48.363Z,37.40
2024-03-16T03:46:41.272Z,37.20
2024-03-16T03:49:12.841Z,37.90
2024-03-16T03:51:40.629Z,36.90
2024-03-16T03:54:08.093Z,36.70
2024-03-16T03:56:35.756Z,36.50
2024-03-16T03:59:03.399Z,37.00
2024-03-16T04:01:31.048Z,38.20
2024-03-16T04:03:59.373Z,36.50
2024-03-16T04:06:27.145Z,36.40
2024-03-16T04:08:54.765Z,37.00
2024-03-16T04:11:22.332Z,33.90
2024-03-16T04:13:49.996Z,35.90
2024-03-16T04:16:17.586Z,36.40
2024-03-16T04:18:45.190Z,35.50
2024-03-16T04:21:13.674Z,33.60
2024-03-16T04:23:41.435Z,33.90
2024-03-16T04:26:08.981Z,33.50
2024-03-16T04:28:36.949Z,33.80
2024-03-16T04:31:04.499Z,35.20
2024-03-16T04:33:32.155Z,33.80
2024-03-16T04:36:00.253Z,32.80
2024-03-16T04:38:27.890Z,31.80
2024-03-16T04:40:55.455Z,32.20
2024-03-16T04:43:23.291Z,31.10
2024-03-16T04:45:50.869Z,30.80
2024-03-16T04:48:18.433Z,30.30
2024-03-16T04:50:48.876Z,30.40
2024-03-16T04:53:16.802Z,29.20
2024-03-16T04:55:44.402Z,30.50
2024-03-16T04:58:12.117Z,30.90
2024-03-16T05:00:39.779Z,30.20
2024-03-16T05:03:07.928Z,29.30
2024-03-16T05:05:35.787Z,30.50
2024-03-16T05:08:03.493Z,30.90
2024-03-16T05:10:31.915Z,29.70
2024-03-16T05:12:59.511Z,29.60
2024-03-16T05:15:27.473Z,32.10
2024-03-16T05:17:55.084Z,30.70
2024-03-16T05:20:22.723Z,31.70
2024-03-16T05:22:50.294Z,31.70
2024-03-16T05:25:17.925Z,30.70
2024-03-16T05:27:45.564Z,30.40
2024-03-16T05:30:13.041Z,31.00
2024-03-16T05:32:40.826Z,31.60
2024-03-16T05:35:09.962Z,29.40
2024-03-16T05:37:38.177Z,30.80
2024-03-16T05:40:05.986Z,29.90
2024-03-16T05:42:35.896Z,30.70
2024-03-16T05:45:04.659Z,29.50
2024-03-16T05:47:32.332Z,29.90
2024-03-16T05:50:00.884Z,28.80
2024-03-16T05:52:28.401Z,28.40
2024-03-16T05:54:56.100Z,29.20
2024-03-16T05:57:23.637Z,28.90
2024-03-16T05:59:51.142Z,29.10
2024-03-16T06:02:18.738Z,30.50
2024-03-16T06:04:46.260Z,27.90
2024-03-16T06:07:13.887Z,29.20
2024-03-16T06:09:43.068Z,29.10
2024-03-16T06:12:11.636Z,28.20
2024-03-16T06:14:39.249Z,29.10
2024-03-16T06:17:06.871Z,30.40
2024-03-16T06:19:34.579Z,29.70
2024-03-16T06:22:03.928Z,29.90
2024-03-16T06:24:32.390Z,28.50
2024-03-16T06:27:06.943Z,28.80
2024-03-16T06:29:34.764Z,28.40
2024-03-16T06:32:08.174Z,28.30
2024-03-16T06:34:35.749Z,28.80
2024-03-16T06:37:04.480Z,27.60
2024-03-16T06:39:32.378Z,26.20
2024-03-16T06:42:00.042Z,27.70
2024-03-16T06:44:27.638Z,26.30
2024-03-16T06:46:55.198Z,26.60
2024-03-16T06:49:22.784Z,25.80
2024-03-16T06:51:50.369Z,24.30
2024-03-16T06:54:18.096Z,25.60
2024-03-16T06:56:45.703Z,25.00
2024-03-16T06:59:13.279Z,24.90
2024-03-16T07:01:40.857Z,25.60
2024-03-16T07:04:08.679Z,22.90
2024-03-16T07:06:36.453Z,21.80
2024-03-16T07:09:09.425Z,19.50
2024-03-16T07:11:37.231Z,18.30
2024-03-16T07:14:05.001Z,19.20
2024-03-16T07:16:32.599Z,17.40
2024-03-16T07:19:00.473Z,16.60
2024-03-16T07:21:29.724Z,15.50
2024-03-16T07:23:57.766Z,15.80
2024-03-16T07:26:25.466Z,14.50
2024-03-16T07:28:53.186Z,16.30
2024-03-16T07:31:20.890Z,17.10
2024-03-16T07:33:48.690Z,17.50
2024-03-16T07:36:16.413Z,18.50
2024-03-16T07:38:44.131Z,20.40
2024-03-16T07:41:12.021Z,21.40
2024-03-16T07:43:41.406Z,21.20
2024-03-16T07:46:09.145Z,17.90
2024-03-16T07:48:36.977Z,18.80
2024-03-16T07:51:05.721Z,18.80
2024-03-16T07:53:33.507Z,17.20
2024-03-16T07:56:01.259Z,17.40
2024-03-16T07:58:28.985Z,17.50
2024-03-16T08:00:57.029Z,16.80
2024-03-16T08:03:25.949Z,16.90
2024-03-16T08:05:55.533Z,15.50
2024-03-16T08:08:25.719Z,15.90
2024-03-16T08:10:55.897Z,16.20
2024-03-16T08:13:26.403Z,15.40
2024-03-16T08:15:57.325Z,15.10
2024-03-16T08:18:28.282Z,13.90
2024-03-16T08:20:59.293Z,13.90
2024-03-16T08:23:30.568Z,13.10
2024-03-16T08:26:00.658Z,13.60
2024-03-16T08:28:31.639Z,13.30
2024-03-16T08:31:02.320Z,11.90
2024-03-16T08:33:32.894Z,11.50
2024-03-16T08:36:06.884Z,11.20
2024-03-16T08:38:38.366Z,11.80
2024-03-16T08:41:09.309Z,11.70
2024-03-16T08:43:39.400Z,13.20
2024-03-16T08:46:11.434Z,13.20
2024-03-16T08:48:41.294Z,14.70
2024-03-16T08:51:11.312Z,14.90
2024-03-16T08:53:41.277Z,15.20
2024-03-16T08:56:12.394Z,15.70
2024-03-16T08:58:45.416Z,13.50
2024-03-16T09:01:18.086Z,17.30
2024-03-16T09:11:41.642Z,16.80
2024-03-16T09:14:09.008Z,16.40
2024-03-16T09:16:36.983Z,15.20
2024-03-16T09:19:04.064Z,16.10
2024-03-16T09:21:47.497Z,17.60
2024-03-16T09:24:23.221Z,19.40
2024-03-16T09:26:53.127Z,17.00
2024-03-16T09:29:21.097Z,14.50
2024-03-16T09:31:48.254Z,15.60
2024-03-16T09:34:15.236Z,14.40
2024-03-16T09:36:42.362Z,16.30
2024-03-16T09:39:11.351Z,15.50
2024-03-16T09:41:40.955Z,16.00
2024-03-16T09:44:12.604Z,15.60
2024-03-16T09:46:43.020Z,15.20
2024-03-16T09:49:14.120Z,14.50
2024-03-16T09:51:41.451Z,14.20
2024-03-16T09:54:10.025Z,14.20
2024-03-16T09:56:37.636Z,13.40
2024-03-16T09:59:25.158Z,13.60
2024-03-16T10:01:59.682Z,15.50
2024-03-16T10:04:28.328Z,14.20
2024-03-16T10:06:56.667Z,14.20
2024-03-16T10:09:24.142Z,13.20
2024-03-16T10:11:51.320Z,14.70
2024-03-16T10:14:18.776Z,12.70
2024-03-16T10:16:45.782Z,12.70
2024-03-16T10:19:14.840Z,12.70
2024-03-16T10:21:42.324Z,11.40
2024-03-16T10:24:09.444Z,12.90
2024-03-16T10:26:36.364Z,11.20
2024-03-16T10:29:07.975Z,12.00
2024-03-16T10:31:34.945Z,11.60
2024-03-16T10:34:02.197Z,11.50
2024-03-16T10:36:29.898Z,11.10
2024-03-16T10:38:57.154Z,12.00
2024-03-16T10:41:25.803Z,12.40
2024-03-16T10:43:53.818Z,13.20
2024-03-16T10:46:21.573Z,13.70
2024-03-16T10:48:48.625Z,12.70
2024-03-16T10:51:16.478Z,12.80
2024-03-16T10:53:43.552Z,12.20
2024-03-16T10:56:10.900Z,11.20
2024-03-16T10:58:38.019Z,10.50
2024-03-16T11:03:44.105Z,10.90
2024-03-16T11:06:22.051Z,12.10
2024-03-16T11:08:51.265Z,11.40
2024-03-16T11:11:22.322Z,12.40
2024-03-16T11:13:59.812Z,12.40
2024-03-16T11:16:28.601Z,14.20
2024-03-16T11:18:57.482Z,12.50
2024-03-16T11:21:34.375Z,11.40
2024-03-16T11:24:18.244Z,10.50
2024-03-16T11:29:32.089Z,9.50
2024-03-16T11:32:02.194Z,10.20
2024-03-16T11:34:29.699Z,11.50
2024-03-16T11:36:57.992Z,9.90
2024-03-16T11:39:26.443Z,9.00
2024-03-16T11:41:59.809Z,9.60
2024-03-16T11:44:27.529Z,10.10
2024-03-16T11:46:55.033Z,10.90
2024-03-16T11:49:22.876Z,11.00
2024-03-16T11:51:50.469Z,10.80
2024-03-16T11:54:18.266Z,10.80
2024-03-16T11:56:45.902Z,10.40
2024-03-16T11:59:15.391Z,10.50
2024-03-16T12:01:47.984Z,10.00
2024-03-16T12:04:16.501Z,9.80
2024-03-16T12:06:44.033Z,9.60
2024-03-16T12:09:16.622Z,9.50
2024-03-16T12:11:50.317Z,10.60
2024-03-16T12:14:25.560Z,9.70
2024-03-16T12:16:59.056Z,9.70
2024-03-16T12:19:26.727Z,11.40
2024-03-16T12:21:55.504Z,9.00
2024-03-16T12:24:23.062Z,9.70
2024-03-16T12:26:51.106Z,8.20
2024-03-16T12:29:19.753Z,8.60
2024-03-16T12:31:49.217Z,9.30
2024-03-16T12:34:16.777Z,10.10
2024-03-16T12:36:44.214Z,9.30
2024-03-16T12:39:12.601Z,8.90
2024-03-16T12:41:44.764Z,9.50
2024-03-16T12:44:12.293Z,9.30
2024-03-16T12:46:39.779Z,9.50
2024-03-16T12:49:07.262Z,9.10
2024-03-16T12:51:36.917Z,9.30
2024-03-16T12:54:05.091Z,8.70
2024-03-16T12:56:38.064Z,8.20
2024-03-16T12:59:05.617Z,7.90
2024-03-16T13:01:33.811Z,9.30
2024-03-16T13:04:01.374Z,10.40
2024-03-16T13:06:28.877Z,9.80
2024-03-16T13:08:57.062Z,9.40
2024-03-16T13:11:26.409Z,10.60
2024-03-16T13:13:53.906Z,9.90
2024-03-16T13:16:22.946Z,9.40
2024-03-16T13:18:53.101Z,10.10
2024-03-16T13:21:23.065Z,9.60
2024-03-16T13:24:04.206Z,10.20
2024-03-16T13:26:35.020Z,10.00
2024-03-16T13:29:03.536Z,12.20
2024-03-16T13:31:32.182Z,18.20
2024-03-16T13:34:00.129Z,17.90
2024-03-16T13:36:30.013Z,16.10
2024-03-16T13:38:57.558Z,11.90
2024-03-16T13:41:26.001Z,14.50
2024-03-16T13:43:55.603Z,15.30
2024-03-16T13:46:23.102Z,10.10
2024-03-16T13:48:58.097Z,11.00
2024-03-16T13:51:30.503Z,13.70
2024-03-16T13:53:58.212Z,19.80
2024-03-16T13:56:25.724Z,15.50
2024-03-16T13:58:53.666Z,10.40
2024-03-16T14:01:25.326Z,9.90
2024-03-16T14:03:53.007Z,8.20
2024-03-16T14:06:20.692Z,8.90
2024-03-16T14:08:48.199Z,10.90
2024-03-16T14:11:16.185Z,10.20
2024-03-16T14:13:44.520Z,11.90
2024-03-16T14:16:14.420Z,11.10
2024-03-16T14:18:42.168Z,10.40
2024-03-16T14:21:09.925Z,10.80
2024-03-16T14:23:37.869Z,10.10
2024-03-16T14:26:05.434Z,11.10
2024-03-16T14:28:33.113Z,9.60
2024-03-16T14:31:02.275Z,8.30
2024-03-16T14:33:29.762Z,9.40
2024-03-16T14:35:57.293Z,9.50
2024-03-16T14:38:25.875Z,10.90
2024-03-16T14:40:55.662Z,11.10
2024-03-16T14:43:23.332Z,10.10
2024-03-16T14:45:51.080Z,10.60
2024-03-16T14:48:18.545Z,11.70
2024-03-16T14:50:46.053Z,10.60
2024-03-16T14:53:13.574Z,10.10
2024-03-16T14:55:41.183Z,11.80
2024-03-16T14:58:08.758Z,11.40
2024-03-16T15:00:36.853Z,12.60
2024-03-16T15:03:05.871Z,13.80
2024-03-16T15:05:33.451Z,14.10
2024-03-16T15:08:01.023Z,14.70
2024-03-16T15:10:28.523Z,15.00
2024-03-16T15:12:56.060Z,14.80
2024-03-16T15:15:23.572Z,15.00
2024-03-16T15:17:51.077Z,14.30
2024-03-16T15:20:18.824Z,14.80
2024-03-16T15:22:46.333Z,14.20
2024-03-16T15:25:21.280Z,15.00
2024-03-16T15:27:54.636Z,13.80
2024-03-16T15:30:25.070Z,13.70
2024-03-16T15:32:53.293Z,13.90
2024-03-16T15:35:20.896Z,13.10
2024-03-16T15:37:48.410Z,12.80
2024-03-16T15:40:16.015Z,13.20
2024-03-16T15:42:44.316Z,14.80
2024-03-16T15:45:13.436Z,14.70
2024-03-16T15:47:41.003Z,14.00
2024-03-16T15:50:08.558Z,14.20
2024-03-16T15:52:36.209Z,15.00
2024-03-16T15:55:04.015Z,13.20
2024-03-16T15:57:34.301Z,12.50
2024-03-16T16:00:05.621Z,13.30
2024-03-16T16:02:34.883Z,13.40
2024-03-16T16:07:31.061Z,14.60
2024-03-16T16:09:58.681Z,16.70
2024-03-16T16:12:27.043Z,16.90
2024-03-16T16:24:15.467Z,14.30
2024-03-16T16:26:48.278Z,15.30
2024-03-16T16:29:16.433Z,17.20
2024-03-16T16:31:44.515Z,16.00
2024-03-16T16:34:13.107Z,16.90
2024-03-16T16:36:41.285Z,18.70
2024-03-16T16:39:09.747Z,22.90
2024-03-16T16:41:38.133Z,22.60
2024-03-16T16:44:07.062Z,27.70
2024-03-16T16:46:35.108Z,24.30
2024-03-16T16:49:04.687Z,24.50
2024-03-16T16:56:17.014Z,20.60
2024-03-16T16:58:45.243Z,27.80
2024-03-16T17:01:13.253Z,21.00
2024-03-16T17:03:43.493Z,19.70
2024-03-16T17:06:11.958Z,17.70
2024-03-16T17:08:48.187Z,16.00
2024-03-16T17:11:35.224Z,15.50
2024-03-16T17:14:39.663Z,15.00
2024-03-16T17:17:20.896Z,14.60
2024-03-16T17:19:53.978Z,16.60
2024-03-16T17:27:16.062Z,19.90
2024-03-16T17:29:49.091Z,21.80
2024-03-16T17:32:18.983Z,21.70
2024-03-16T17:34:48.589Z,20.50
2024-03-16T17:37:17.257Z,19.50
2024-03-16T17:39:48.696Z,20.50
2024-03-16T17:42:17.576Z,23.30
2024-03-16T17:44:47.980Z,20.40
2024-03-16T17:47:16.329Z,23.30
2024-03-16T17:49:45.036Z,22.50
2024-03-16T17:52:13.280Z,23.10
2024-03-16T17:54:42.261Z,24.50
2024-03-16T17:57:11.348Z,26.70
2024-03-16T17:59:39.462Z,27.10
2024-03-16T18:02:08.182Z,25.10
2024-03-16T18:04:41.639Z,24.80
2024-03-16T18:07:18.246Z,23.30
2024-03-16T18:10:04.616Z,29.40
2024-03-16T18:12:53.730Z,28.60
2024-03-16T18:15:41.386Z,30.30
2024-03-16T18:18:20.781Z,29.70
2024-03-16T18:21:20.912Z,27.00
2024-03-16T18:23:58.815Z,26.70
2024-03-16T18:26:30.696Z,23.90
2024-03-16T18:29:01.269Z,25.00
2024-03-16T18:31:31.489Z,24.90
2024-03-16T18:34:02.082Z,23.60
2024-03-16T18:36:32.576Z,23.90
2024-03-16T18:39:03.024Z,25.80
2024-03-16T18:41:35.806Z,25.50
2024-03-16T18:44:09.415Z,26.50
2024-03-16T18:46:40.756Z,24.80
2024-03-16T18:49:29.885Z,26.40
2024-03-16T18:52:04.938Z,26.10
2024-03-16T18:54:47.056Z,23.00
2024-03-16T18:59:13.357Z,22.10
2024-03-16T19:01:50.560Z,19.70
2024-03-16T19:12:07.796Z,20.80
2024-03-16T19:14:44.155Z,20.50
2024-03-16T19:17:14.445Z,19.70
2024-03-16T19:19:50.530Z,20.00
2024-03-16T19:22:28.731Z,20.80
2024-03-16T19:25:03.058Z,19.60
2024-03-16T19:27:43.830Z,18.90
2024-03-16T19:30:17.068Z,19.00
2024-03-16T19:32:51.146Z,19.10
2024-03-16T19:35:32.472Z,20.50
2024-03-16T19:38:00.193Z,20.10
2024-03-16T19:40:31.473Z,19.70
2024-03-16T19:43:00.365Z,21.40
2024-03-16T19:45:29.628Z,21.30
2024-03-16T19:47:57.865Z,22.20
2024-03-16T19:50:27.109Z,21.50
2024-03-16T19:52:58.654Z,20.80
2024-03-16T19:55:30.297Z,22.50
2024-03-16T19:57:59.342Z,21.10
2024-03-16T20:00:28.009Z,22.00
2024-03-16T20:03:03.555Z,22.70
2024-03-16T20:05:31.638Z,21.40
2024-03-16T20:07:59.662Z,22.50
2024-03-16T20:10:28.770Z,21.70
2024-03-16T20:13:00.865Z,21.80
2024-03-16T20:15:29.423Z,23.80
2024-03-16T20:17:57.580Z,24.50
2024-03-16T20:20:35.606Z,24.00
2024-03-16T20:23:06.316Z,21.60
2024-03-16T20:25:35.560Z,21.90
2024-03-16T20:28:08.410Z,23.90
2024-03-16T20:30:36.196Z,23.60
2024-03-16T20:37:52.861Z,22.60
2024-03-16T20:45:12.588Z,20.40
2024-03-16T20:47:45.206Z,21.40
2024-03-16T20:50:28.480Z,22.50
2024-03-16T20:53:06.097Z,23.90
2024-03-16T20:58:18.201Z,20.80
2024-03-16T21:00:55.082Z,22.40
2024-03-16T21:03:36.268Z,22.20
2024-03-16T21:06:37.565Z,21.80
2024-03-16T21:09:15.561Z,21.80
2024-03-16T21:11:44.235Z,23.40
2024-03-16T21:14:12.350Z,22.30
2024-03-16T21:16:39.998Z,22.60
2024-03-16T21:19:08.002Z,22.20
2024-03-16T21:26:34.073Z,20.80
2024-03-16T21:29:11.456Z,22.20
2024-03-16T21:31:53.054Z,21.90
2024-03-16T21:34:31.937Z,21.50
2024-03-16T21:37:18.584Z,22.10
2024-03-16T21:39:46.837Z,22.50
2024-03-16T21:42:27.035Z,23.00
2024-03-16T21:44:59.942Z,21.90
2024-03-16T21:47:28.106Z,24.50
2024-03-16T21:49:55.670Z,21.30
2024-03-16T21:57:07.217Z,22.90
2024-03-16T21:59:34.746Z,22.30
2024-03-16T22:02:02.548Z,21.90
2024-03-16T22:04:30.434Z,21.90
2024-03-16T22:06:58.976Z,23.20
2024-03-16T22:09:26.628Z,21.30
2024-03-16T22:11:54.324Z,21.40
2024-03-16T22:14:21.874Z,22.50
2024-03-16T22:16:49.405Z,22.40
2024-03-16T22:19:17.060Z,21.60
2024-03-16T22:21:44.510Z,23.00
2024-03-16T22:24:13.222Z,22.30
2024-03-16T22:26:41.104Z,22.70
2024-03-16T22:29:08.878Z,23.00
2024-03-16T22:31:36.386Z,24.70
2024-03-16T22:34:03.880Z,22.50
2024-03-16T22:36:32.891Z,23.20
2024-03-16T22:39:00.759Z,23.60
2024-03-16T22:41:30.444Z,24.60
2024-03-16T22:43:58.422Z,23.70
2024-03-16T22:46:25.920Z,22.70
2024-03-16T22:48:55.641Z,23.90
2024-03-16T22:51:23.428Z,24.20
2024-03-16T22:53:51.044Z,23.90
2024-03-16T22:56:18.699Z,23.90
2024-03-16T22:58:47.347Z,24.20
2024-03-16T23:01:14.959Z,25.90
2024-03-16T23:03:42.636Z,25.40
2024-03-16T23:06:10.174Z,24.40
2024-03-16T23:08:37.663Z,23.90
2024-03-16T23:11:05.217Z,24.50
2024-03-16T23:13:34.813Z,25.40
2024-03-16T23:16:02.951Z,24.50
2024-03-16T23:21:37.620Z,25.60
2024-03-16T23:24:06.833Z,26.50
2024-03-16T23:26:35.517Z,27.70
2024-03-16T23:29:03.089Z,26.70
2024-03-16T23:31:30.719Z,28.10
2024-03-16T23:41:41.368Z,26.80
2024-03-16T23:44:08.820Z,28.20
2024-03-16T23:46:36.259Z,28.70
2024-03-16T23:49:04.355Z,28.60
2024-03-16T23:51:31.907Z,29.50
2024-03-16T23:53:59.436Z,30.90
2024-03-16T23:56:27.022Z,30.80
